Chon Buri, Thailand

06:55 AM ICT on Februari 25, 2017 (GMT +0700)
Bangkok (Suvarnabhumi) | | Change Station

Elev 7 ft 13.37 °N, 100.98 °E | Updated 25 minutes ago

Partly Cloudy
Växlande molnighet
79 °F
Feels Like 79 °F
N
4
Vind Växlande Vind from Ostlig

Idag
High -- | Low -- °F
--% Chance of Precip.
Yesterday
High -- | Low -- °F
Precip. -- tum
Lufttryck 29.89 tum
Sikt 6.2 miles
Molnigt Few 2000 ft
Daggpunkt 72 °F
Luftfuktighet 78%
Rainfall 0.00 tum
Snow Depth Not available.
6:34 AM 6:24 PM
Fjärde kvarteret, 3% visible
METAR VTBS 242330Z 08003KT 060V160 9999 FEW020 26/22 Q1012 NOSIG
Lufttryck 29.89 tum
Sikt 6.2 miles
Molnigt Few 2000 ft
Daggpunkt 72 °F
Luftfuktighet 78%
Rainfall 0.00 tum
Snow Depth Not available.
6:34 AM 6:24 PM
Fjärde kvarteret, 3% visible
METAR VTBS 242330Z 08003KT 060V160 9999 FEW020 26/22 Q1012 NOSIG

Get Your Daily Forecast Email!

Thanks for signing up!

Be on the lookout for a verification email in your inbox.

You'll start receiving the daily forecast at 8 AM.

×

10-Day Weather Forecast

No radar image for this location.
×

Almanac

Astronomi

Feb. 25, 2017 Rise Set
Actual Time
Civil Twilight
Nautical Twilight
Astronomical Twilight
Månen
Length Of Visible Light
Dagens längd
Tomorrow will be .
, % of the Moon is Illuminated

Today's Extremes

Country Highs Country Lows

Community

WunderPhotos

Upload Photos

1,962,540 photos uploaded!

WunderBlog® & News

Nearby

Air Quality

  Air Quality AQ Index Pollutant
Not available.

Snödjup

Station Depth Elevation

Earthquake Activity

Stad Distance Mag. Time & Date
Minimum magnitude displayed is 2.5.

Coastal Water Temperatures

Plats Temperatur

Stations

Nearby Weather Stations

Station Location Temp Vindavkylning Daggpunkt Luftfuktighet Vind Precip. Elev Uppdaterad Type